createdAt,value
2023-03-13T00:00:26.594Z,59.77
2023-03-13T00:02:10.518Z,56.08
2023-03-13T00:03:54.497Z,55.84
2023-03-13T00:05:37.785Z,57.63
2023-03-13T00:07:12.852Z,59.83
2023-03-13T00:09:05.275Z,61.90
2023-03-13T00:10:26.652Z,64.68
2023-03-13T00:11:54.508Z,64.44
2023-03-13T00:13:38.423Z,61.97
2023-03-13T00:15:08.438Z,58.77
2023-03-13T00:16:42.931Z,56.37
2023-03-13T00:18:26.332Z,56.95
2023-03-13T00:20:03.937Z,58.64
2023-03-13T00:21:43.149Z,60.60
2023-03-13T00:23:13.202Z,62.25
2023-03-13T00:24:59.690Z,64.87
2023-03-13T00:26:19.974Z,64.45
2023-03-13T00:27:42.843Z,61.81
2023-03-13T00:29:12.793Z,59.34
2023-03-13T00:30:47.973Z,56.60
2023-03-13T00:32:22.711Z,56.70
2023-03-13T00:33:59.160Z,58.21
2023-03-13T00:35:19.756Z,60.06
2023-03-13T00:36:54.699Z,62.17
2023-03-13T00:38:16.527Z,64.50
2023-03-13T00:39:39.085Z,65.30
2023-03-13T00:41:13.829Z,63.32
2023-03-13T00:42:38.857Z,60.52
2023-03-13T00:44:04.230Z,57.93
2023-03-13T00:45:31.675Z,56.49
2023-03-13T00:46:59.629Z,57.53
2023-03-13T00:48:33.668Z,59.06
2023-03-13T00:50:17.281Z,61.19
2023-03-13T00:51:39.385Z,63.46
2023-03-13T00:53:14.464Z,65.45
2023-03-13T00:54:39.564Z,64.67
2023-03-13T00:56:11.769Z,61.88
2023-03-13T00:57:39.499Z,59.55
2023-03-13T00:59:04.246Z,56.88
2023-03-13T01:00:25.397Z,56.63
2023-03-13T01:01:57.303Z,57.95
2023-03-13T01:03:18.135Z,60.09
2023-03-13T01:04:40.762Z,61.63
2023-03-13T01:06:19.960Z,63.99
2023-03-13T01:08:01.307Z,64.84
2023-03-13T01:09:21.749Z,62.78
2023-03-13T01:10:44.248Z,60.17
2023-03-13T01:12:07.101Z,57.85
2023-03-13T01:13:38.695Z,56.48
2023-03-13T01:14:59.143Z,57.54
2023-03-13T01:16:19.236Z,58.97
2023-03-13T01:17:44.191Z,60.74
2023-03-13T01:19:06.160Z,62.16
2023-03-13T01:20:26.007Z,64.50
2023-03-13T01:21:46.424Z,65.35
2023-03-13T01:23:09.010Z,63.84
2023-03-13T01:24:39.345Z,61.18
2023-03-13T01:25:59.787Z,58.66
2023-03-13T01:27:19.863Z,56.82
2023-03-13T01:28:52.762Z,57.06
2023-03-13T01:30:16.073Z,58.88
2023-03-13T01:31:36.641Z,60.61
2023-03-13T01:33:07.060Z,62.21
2023-03-13T01:34:29.350Z,64.56
2023-03-13T01:35:59.107Z,65.20
2023-03-13T01:37:22.033Z,63.25
2023-03-13T01:38:46.959Z,60.89
2023-03-13T01:40:30.436Z,58.14
2023-03-13T01:42:05.825Z,56.75
2023-03-13T01:43:33.233Z,57.83
2023-03-13T01:45:05.221Z,59.63
2023-03-13T01:46:27.143Z,61.75
2023-03-13T01:48:47.106Z,65.20
2023-03-13T01:50:08.857Z,64.86
2023-03-13T01:51:44.210Z,62.51
2023-03-13T01:53:14.443Z,60.01
2023-03-13T01:54:48.832Z,57.64
2023-03-13T01:56:13.241Z,57.14
2023-03-13T01:57:36.076Z,58.35
2023-03-13T01:58:56.811Z,60.08
2023-03-13T02:00:19.261Z,62.19
2023-03-13T02:01:40.355Z,64.49
2023-03-13T02:03:03.126Z,65.52
2023-03-13T02:04:23.608Z,63.81
2023-03-13T02:05:55.964Z,61.53
2023-03-13T02:07:30.980Z,58.77
2023-03-13T02:08:52.013Z,57.10
2023-03-13T02:10:12.227Z,57.59
2023-03-13T02:11:46.877Z,59.22
2023-03-13T02:13:19.180Z,61.08
2023-03-13T02:14:51.498Z,63.35
2023-03-13T02:16:23.773Z,65.87
2023-03-13T02:18:00.203Z,64.16
2023-03-13T02:19:32.265Z,61.92
2023-03-13T02:21:00.369Z,59.51
2023-03-13T02:22:31.822Z,57.16
2023-03-13T02:24:06.769Z,57.54
2023-03-13T02:25:27.181Z,59.19
2023-03-13T02:27:09.061Z,61.34
2023-03-13T02:28:58.108Z,63.98
2023-03-13T02:30:26.211Z,65.41
2023-03-13T02:31:46.572Z,63.60
2023-03-13T02:33:14.109Z,60.93
2023-03-13T02:34:34.581Z,58.77
2023-03-13T02:36:06.852Z,56.81
2023-03-13T02:37:38.686Z,57.66
2023-03-13T02:39:13.393Z,59.31
2023-03-13T02:40:45.491Z,61.79
2023-03-13T02:42:25.890Z,64.14
2023-03-13T02:43:58.236Z,65.85
2023-03-13T02:45:28.786Z,64.29
2023-03-13T02:47:16.381Z,61.59
2023-03-13T02:49:08.485Z,58.93
2023-03-13T02:50:40.682Z,57.29
2023-03-13T02:52:19.931Z,58.57
2023-03-13T02:53:49.901Z,60.68
2023-03-13T02:55:21.712Z,63.02
2023-03-13T02:57:00.982Z,65.43
2023-03-13T02:58:50.464Z,64.75
2023-03-13T03:00:26.349Z,61.81
2023-03-13T03:02:00.382Z,59.28
2023-03-13T03:03:28.088Z,57.35
2023-03-13T03:05:11.741Z,57.69
2023-03-13T03:06:55.234Z,59.81
2023-03-13T03:08:23.061Z,62.08
2023-03-13T03:10:06.595Z,64.79
2023-03-13T03:11:38.509Z,65.22
2023-03-13T03:13:03.773Z,63.32
2023-03-13T03:14:37.745Z,60.82
2023-03-13T03:16:11.009Z,58.79
2023-03-13T03:17:42.999Z,57.35
2023-03-13T03:19:10.780Z,58.49
2023-03-13T03:20:58.770Z,60.28
2023-03-13T03:22:42.736Z,62.87
2023-03-13T03:24:21.676Z,65.83
2023-03-13T03:25:53.832Z,64.70
2023-03-13T03:27:26.003Z,62.22
2023-03-13T03:29:10.394Z,59.61
2023-03-13T03:30:54.156Z,57.42
2023-03-13T03:32:37.496Z,58.19
2023-03-13T03:34:12.244Z,60.26
2023-03-13T03:35:45.008Z,62.48
2023-03-13T03:37:24.402Z,65.42
2023-03-13T03:38:44.867Z,64.92
2023-03-13T03:40:29.447Z,62.52
2023-03-13T03:41:59.551Z,60.28
2023-03-13T03:43:22.138Z,58.12
2023-03-13T03:44:50.352Z,57.43
2023-03-13T03:46:33.934Z,58.95
2023-03-13T03:48:17.834Z,61.45
2023-03-13T03:49:52.397Z,64.02
2023-03-13T03:51:24.553Z,65.76
2023-03-13T03:53:08.283Z,64.33
2023-03-13T03:54:40.374Z,61.39
2023-03-13T03:56:08.777Z,59.48
2023-03-13T03:57:44.081Z,57.53
2023-03-13T03:59:14.826Z,58.01
2023-03-13T04:01:02.227Z,60.07
2023-03-13T04:02:46.913Z,62.87
2023-03-13T04:04:30.592Z,65.26
2023-03-13T04:06:02.322Z,64.43
2023-03-13T04:07:34.112Z,62.25
2023-03-13T04:09:17.856Z,59.63
2023-03-13T04:10:51.805Z,57.50
2023-03-13T04:12:19.122Z,57.96
2023-03-13T04:14:00.329Z,59.90
2023-03-13T04:15:52.987Z,62.43
2023-03-13T04:17:26.860Z,65.11
2023-03-13T04:18:54.535Z,64.81
2023-03-13T04:20:37.915Z,62.29
2023-03-13T04:21:58.437Z,59.86
2023-03-13T04:23:33.179Z,57.66
2023-03-13T04:24:56.712Z,57.53
2023-03-13T04:26:40.303Z,59.11
2023-03-13T04:28:23.646Z,61.43
2023-03-13T04:30:08.150Z,64.28
2023-03-13T04:31:51.137Z,65.65
2023-03-13T04:33:39.176Z,63.38
2023-03-13T04:35:34.561Z,60.27
2023-03-13T04:38:06.614Z,57.17
2023-03-13T04:39:33.230Z,58.20
2023-03-13T04:41:36.139Z,60.65
2023-03-13T04:43:26.106Z,63.35
2023-03-13T04:45:14.899Z,65.83
2023-03-13T04:46:49.145Z,64.39
2023-03-13T04:48:50.593Z,61.21
2023-03-13T04:51:12.949Z,58.02
2023-03-13T04:53:44.561Z,58.51
2023-03-13T04:55:36.757Z,61.18
2023-03-13T04:58:11.972Z,65.24
2023-03-13T04:59:48.020Z,65.14
2023-03-13T05:01:22.583Z,62.82
2023-03-13T05:03:17.365Z,60.20
2023-03-13T05:05:39.833Z,57.63
2023-03-13T05:08:12.124Z,59.57
2023-03-13T05:10:01.089Z,62.31
2023-03-13T05:12:00.996Z,65.52
2023-03-13T05:14:01.247Z,64.55
2023-03-13T05:15:56.604Z,61.45
2023-03-13T05:18:26.634Z,58.38
2023-03-13T05:20:58.920Z,58.53
2023-03-13T05:23:00.005Z,61.75
2023-03-13T05:25:09.765Z,65.14
2023-03-13T05:27:08.766Z,64.81
2023-03-13T05:29:19.027Z,61.57
2023-03-13T05:31:44.490Z,58.20
2023-03-13T05:33:23.914Z,57.99
2023-03-13T05:35:38.696Z,60.58
2023-03-13T05:37:49.317Z,63.66
2023-03-13T05:39:28.424Z,65.70
2023-03-13T05:42:04.017Z,62.79
2023-03-13T05:43:38.627Z,60.18
2023-03-13T05:45:27.384Z,57.78
2023-03-13T05:47:06.019Z,57.97
2023-03-13T05:48:49.073Z,60.12
2023-03-13T05:50:25.009Z,62.23
2023-03-13T05:52:16.484Z,65.21
2023-03-13T05:54:38.756Z,64.01
2023-03-13T05:56:32.198Z,60.95
2023-03-13T05:58:58.130Z,58.13
2023-03-13T06:00:57.995Z,58.05
2023-03-13T06:02:54.174Z,60.88
2023-03-13T06:04:45.416Z,63.34
2023-03-13T06:06:20.639Z,65.65
2023-03-13T06:08:04.255Z,64.07
2023-03-13T06:09:36.822Z,61.50
2023-03-13T06:11:20.329Z,59.50
2023-03-13T06:13:17.156Z,57.59
2023-03-13T06:14:54.976Z,58.76
2023-03-13T06:16:18.036Z,60.57
2023-03-13T06:18:03.458Z,62.91
2023-03-13T06:19:48.124Z,65.55
2023-03-13T06:21:20.335Z,64.16
2023-03-13T06:23:04.964Z,61.66
2023-03-13T06:24:49.064Z,59.20
2023-03-13T06:26:21.051Z,57.50
2023-03-13T06:27:41.989Z,58.26
2023-03-13T06:29:25.798Z,60.10
2023-03-13T06:31:10.157Z,62.39
2023-03-13T06:32:49.897Z,65.35
2023-03-13T06:34:33.786Z,64.78
2023-03-13T06:36:07.501Z,62.50
2023-03-13T06:37:59.052Z,60.03
2023-03-13T06:39:33.661Z,57.78
2023-03-13T06:41:19.388Z,58.15
2023-03-13T06:43:03.607Z,60.22
2023-03-13T06:44:47.948Z,62.53
2023-03-13T06:46:08.644Z,65.09
2023-03-13T06:47:31.544Z,64.85
2023-03-13T06:49:11.978Z,63.11
2023-03-13T06:50:57.084Z,60.30
2023-03-13T06:52:44.210Z,58.13
2023-03-13T06:54:16.267Z,57.92
2023-03-13T06:55:36.692Z,59.43
2023-03-13T06:57:13.520Z,61.63
2023-03-13T06:58:47.766Z,64.20
2023-03-13T07:00:19.861Z,65.53
2023-03-13T07:01:42.945Z,63.98
2023-03-13T07:03:17.622Z,61.83
2023-03-13T07:05:04.696Z,59.33
2023-03-13T07:06:36.243Z,57.46
2023-03-13T07:08:15.542Z,58.37
2023-03-13T07:10:03.943Z,60.34
2023-03-13T07:11:48.283Z,63.00
2023-03-13T07:13:32.843Z,65.52
2023-03-13T07:15:04.605Z,63.90
2023-03-13T07:16:36.374Z,61.75
2023-03-13T07:18:08.601Z,59.08
2023-03-13T07:20:02.152Z,57.47
2023-03-13T07:21:46.125Z,58.59
2023-03-13T07:23:31.858Z,60.79
2023-03-13T07:25:04.089Z,63.28
2023-03-13T07:26:38.102Z,65.24
2023-03-13T07:28:21.884Z,64.03
2023-03-13T07:30:03.000Z,61.58
2023-03-13T07:31:35.009Z,58.97
2023-03-13T07:33:20.842Z,57.36
2023-03-13T07:35:05.707Z,58.57
2023-03-13T07:36:30.270Z,60.50
2023-03-13T07:38:14.615Z,62.72
2023-03-13T07:40:08.011Z,65.44
2023-03-13T07:41:40.095Z,63.76
2023-03-13T07:43:14.951Z,61.15
2023-03-13T07:45:08.817Z,58.93
2023-03-13T07:46:41.511Z,57.23
2023-03-13T07:48:25.271Z,58.45
2023-03-13T07:50:11.352Z,60.46
2023-03-13T07:51:55.417Z,62.70
2023-03-13T07:53:39.779Z,65.14
2023-03-13T07:55:19.883Z,63.74
2023-03-13T07:57:09.141Z,60.92
2023-03-13T07:58:31.658Z,58.43
2023-03-13T08:00:15.968Z,57.22
2023-03-13T08:01:47.844Z,58.10
2023-03-13T08:03:31.902Z,60.38
2023-03-13T08:05:16.475Z,62.57
2023-03-13T08:06:50.936Z,64.86
2023-03-13T08:08:30.406Z,64.06
2023-03-13T08:10:02.983Z,61.18
2023-03-13T08:11:43.811Z,58.72
2023-03-13T08:13:36.946Z,56.62
2023-03-13T08:15:15.250Z,57.81
2023-03-13T08:16:40.397Z,60.07
2023-03-13T08:18:13.074Z,61.89
2023-03-13T08:19:57.153Z,63.55
2023-03-13T08:21:48.559Z,64.39
2023-03-13T08:23:20.774Z,61.42
2023-03-13T08:25:04.901Z,58.83
2023-03-13T08:26:49.005Z,56.55
2023-03-13T08:28:21.271Z,57.26
2023-03-13T08:30:02.953Z,58.73
2023-03-13T08:31:48.674Z,60.85
2023-03-13T08:33:12.223Z,62.64
2023-03-13T08:34:55.932Z,64.66
2023-03-13T08:36:28.178Z,63.43
2023-03-13T08:38:12.220Z,60.43
2023-03-13T08:40:04.685Z,56.81
2023-03-13T08:41:57.938Z,56.70
2023-03-13T08:43:41.594Z,58.30
2023-03-13T08:45:04.625Z,59.99
2023-03-13T08:46:57.954Z,61.84
2023-03-13T08:48:45.293Z,63.67
2023-03-13T08:50:17.507Z,63.92
2023-03-13T08:52:01.308Z,61.15
2023-03-13T08:53:45.133Z,58.03
2023-03-13T08:55:31.257Z,56.12
2023-03-13T08:57:16.008Z,57.31
2023-03-13T08:59:01.656Z,59.04
2023-03-13T09:00:33.632Z,60.75
2023-03-13T09:02:18.036Z,62.17
2023-03-13T09:04:08.200Z,63.96
2023-03-13T09:05:38.554Z,62.74
2023-03-13T09:07:08.843Z,60.06
2023-03-13T09:08:29.213Z,57.41
2023-03-13T09:09:51.974Z,56.38
2023-03-13T09:11:35.677Z,56.83
2023-03-13T09:13:08.404Z,58.35
2023-03-13T09:14:39.997Z,60.01
2023-03-13T09:16:12.274Z,61.48
2023-03-13T09:17:51.694Z,62.55
2023-03-13T09:19:12.405Z,64.26
2023-03-13T09:20:48.890Z,63.12
2023-03-13T09:22:21.064Z,59.79
2023-03-13T09:24:00.512Z,56.91
2023-03-13T09:25:23.326Z,55.87
2023-03-13T09:27:07.221Z,57.05
2023-03-13T09:28:42.184Z,58.54
2023-03-13T09:30:26.078Z,60.31
2023-03-13T09:32:06.305Z,61.83
2023-03-13T09:33:28.691Z,63.47
2023-03-13T09:34:49.264Z,63.97
2023-03-13T09:36:09.774Z,61.92
2023-03-13T09:37:37.646Z,59.54
2023-03-13T09:39:12.929Z,56.10
2023-03-13T09:41:04.863Z,55.63
2023-03-13T09:42:26.166Z,57.14
2023-03-13T09:43:46.719Z,57.99
2023-03-13T09:45:39.895Z,59.30
2023-03-13T09:47:32.993Z,60.87
2023-03-13T09:49:18.421Z,61.86
2023-03-13T09:50:58.263Z,63.36
2023-03-13T09:52:30.122Z,62.98
2023-03-13T09:54:02.174Z,59.95
2023-03-13T09:55:25.293Z,56.04
2023-03-13T09:56:48.442Z,54.92
2023-03-13T09:58:27.602Z,55.61
2023-03-13T10:00:11.748Z,57.12
2023-03-13T10:01:55.261Z,58.43
2023-03-13T10:03:15.903Z,59.36
2023-03-13T10:04:36.251Z,59.92
2023-03-13T10:06:19.962Z,60.60
2023-03-13T10:08:05.302Z,61.45
2023-03-13T10:09:25.156Z,61.88
2023-03-13T10:11:00.941Z,62.64
2023-03-13T10:12:23.578Z,63.60
2023-03-13T10:13:46.386Z,62.21
2023-03-13T10:15:18.464Z,58.87
2023-03-13T10:16:38.833Z,56.09
2023-03-13T10:18:11.103Z,54.94
2023-03-13T10:19:50.879Z,55.31
2023-03-13T10:21:22.419Z,56.91
2023-03-13T10:23:03.937Z,57.81
2023-03-13T10:24:48.426Z,58.70
2023-03-13T10:26:31.942Z,59.39
2023-03-13T10:28:15.576Z,60.25
2023-03-13T10:29:37.965Z,60.85
2023-03-13T10:31:21.837Z,61.20
2023-03-13T10:33:08.187Z,61.56
2023-03-13T10:34:47.147Z,61.80
2023-03-13T10:36:31.091Z,62.26
2023-03-13T10:37:51.742Z,62.63
2023-03-13T10:39:14.530Z,63.06
2023-03-13T10:40:58.297Z,61.01
2023-03-13T10:42:32.763Z,57.35
2023-03-13T10:44:04.755Z,55.17
2023-03-13T10:45:38.685Z,55.19
2023-03-13T10:47:13.081Z,56.05
2023-03-13T10:48:52.524Z,56.93
2023-03-13T10:50:15.030Z,57.89
2023-03-13T10:51:51.400Z,58.58
2023-03-13T10:53:23.699Z,59.47
2023-03-13T10:55:03.534Z,60.12
2023-03-13T10:56:37.736Z,60.56
2023-03-13T10:58:21.269Z,60.98
2023-03-13T10:59:41.847Z,61.11
2023-03-13T11:01:05.006Z,61.21
2023-03-13T11:02:45.377Z,61.36
2023-03-13T11:04:08.522Z,61.24
2023-03-13T11:05:42.389Z,61.54
2023-03-13T11:07:17.719Z,61.67
2023-03-13T11:08:40.355Z,61.98
2023-03-13T11:10:24.456Z,62.23
2023-03-13T11:12:04.994Z,62.86
2023-03-13T11:13:37.990Z,62.38
2023-03-13T11:15:10.294Z,58.23
2023-03-13T11:16:49.622Z,54.76
2023-03-13T11:18:10.133Z,54.36
2023-03-13T11:19:51.049Z,54.58
2023-03-13T11:21:35.809Z,55.50
2023-03-13T11:22:59.013Z,56.61
2023-03-13T11:24:32.887Z,57.88
2023-03-13T11:26:05.232Z,58.74
2023-03-13T11:27:36.676Z,59.56
2023-03-13T11:29:08.774Z,60.01
2023-03-13T11:30:42.621Z,60.42
2023-03-13T11:32:26.259Z,60.87
2023-03-13T11:33:58.666Z,61.33
2023-03-13T11:35:47.090Z,61.70
2023-03-13T11:37:22.230Z,61.92
2023-03-13T11:39:10.957Z,62.00
2023-03-13T11:40:43.066Z,62.54
2023-03-13T11:42:14.967Z,63.32
2023-03-13T11:43:42.937Z,61.75
2023-03-13T11:45:03.539Z,58.92
2023-03-13T11:46:56.160Z,55.51
2023-03-13T11:48:21.188Z,55.10
2023-03-13T11:49:43.829Z,55.95
2023-03-13T11:51:20.815Z,56.97
2023-03-13T11:52:53.143Z,59.14
2023-03-13T11:54:28.502Z,60.69
2023-03-13T11:55:55.930Z,61.60
2023-03-13T11:57:42.225Z,62.99
2023-03-13T11:59:10.159Z,64.16
2023-03-13T12:00:42.257Z,61.92
2023-03-13T12:02:10.256Z,59.01
2023-03-13T12:03:30.700Z,56.53
2023-03-13T12:05:14.757Z,56.27
2023-03-13T12:06:37.314Z,57.75
2023-03-13T12:08:09.541Z,59.35
2023-03-13T12:09:29.708Z,61.08
2023-03-13T12:10:50.821Z,62.02
2023-03-13T12:12:34.517Z,63.96
2023-03-13T12:13:57.375Z,64.23
2023-03-13T12:15:19.294Z,62.17
2023-03-13T12:16:40.351Z,60.35
2023-03-13T12:18:12.313Z,57.54
2023-03-13T12:19:35.609Z,56.20
2023-03-13T12:21:07.594Z,57.21
2023-03-13T12:22:39.589Z,58.48
2023-03-13T12:24:11.994Z,60.31
2023-03-13T12:25:46.017Z,62.12
2023-03-13T12:27:06.729Z,64.04
2023-03-13T12:28:58.482Z,64.04
2023-03-13T12:30:30.384Z,61.90
2023-03-13T12:32:02.405Z,58.81
2023-03-13T12:33:24.214Z,57.11
2023-03-13T12:34:44.584Z,57.49
2023-03-13T12:36:16.347Z,59.24
2023-03-13T12:38:08.992Z,61.19
2023-03-13T12:39:40.798Z,63.79
2023-03-13T12:41:04.578Z,65.43
2023-03-13T12:42:38.758Z,63.73
2023-03-13T12:44:09.213Z,61.20
2023-03-13T12:45:47.559Z,59.33
2023-03-13T12:47:19.830Z,57.25
2023-03-13T12:48:42.390Z,58.08
2023-03-13T12:50:25.745Z,59.99
2023-03-13T12:52:14.966Z,62.48
2023-03-13T12:53:46.838Z,64.92
2023-03-13T12:55:30.629Z,63.93
2023-03-13T12:56:51.039Z,61.53
2023-03-13T12:58:19.187Z,59.75
2023-03-13T12:59:59.568Z,57.56
2023-03-13T13:01:31.630Z,57.81
2023-03-13T13:03:15.500Z,59.49
2023-03-13T13:04:47.622Z,61.72
2023-03-13T13:06:19.910Z,63.92
2023-03-13T13:07:40.125Z,64.73
2023-03-13T13:09:07.838Z,63.20
2023-03-13T13:10:40.794Z,60.71
2023-03-13T13:12:01.550Z,58.37
2023-03-13T13:13:43.138Z,57.26
2023-03-13T13:15:15.642Z,58.51
2023-03-13T13:16:50.964Z,60.19
2023-03-13T13:18:30.759Z,62.16
2023-03-13T13:20:16.093Z,64.75
2023-03-13T13:21:56.091Z,64.14
2023-03-13T13:23:39.496Z,61.25
2023-03-13T13:24:59.954Z,58.81
2023-03-13T13:26:21.554Z,57.33
2023-03-13T13:27:54.020Z,57.54
2023-03-13T13:29:14.173Z,59.04
2023-03-13T13:30:48.799Z,60.68
2023-03-13T13:32:32.508Z,62.43
2023-03-13T13:33:53.248Z,64.53
2023-03-13T13:35:25.573Z,63.83
2023-03-13T13:37:09.188Z,61.31
2023-03-13T13:38:41.102Z,58.44
2023-03-13T13:40:03.178Z,57.04
2023-03-13T13:41:30.747Z,57.58
2023-03-13T13:42:51.359Z,58.84
2023-03-13T13:44:19.261Z,60.29
2023-03-13T13:45:41.747Z,61.71
2023-03-13T13:47:16.593Z,63.61
2023-03-13T13:48:39.311Z,64.48
2023-03-13T13:50:11.573Z,62.12
2023-03-13T13:51:32.072Z,59.91
2023-03-13T13:52:52.296Z,57.57
2023-03-13T13:54:12.683Z,57.02
2023-03-13T13:55:52.375Z,58.09
2023-03-13T13:57:26.378Z,59.97
2023-03-13T13:58:58.585Z,62.41
2023-03-13T14:00:24.387Z,64.58
2023-03-13T14:01:59.430Z,64.54
2023-03-13T14:03:40.071Z,62.34
2023-03-13T14:05:12.387Z,59.31
2023-03-13T14:06:35.226Z,57.13
2023-03-13T14:07:55.758Z,56.97
2023-03-13T14:09:18.234Z,57.94
2023-03-13T14:10:50.415Z,59.67
2023-03-13T14:12:11.096Z,61.23
2023-03-13T14:13:50.314Z,62.97
2023-03-13T14:15:11.217Z,64.34
2023-03-13T14:16:31.602Z,62.99
2023-03-13T14:17:55.092Z,60.52
2023-03-13T14:19:18.177Z,58.06
2023-03-13T14:20:38.971Z,56.35
2023-03-13T14:22:13.738Z,57.03
2023-03-13T14:23:45.734Z,58.79
2023-03-13T14:25:25.737Z,60.49
2023-03-13T14:27:05.375Z,62.13
2023-03-13T14:28:59.002Z,64.56
2023-03-13T14:30:31.110Z,63.58
2023-03-13T14:31:52.220Z,61.20
2023-03-13T14:33:26.084Z,58.64
2023-03-13T14:35:09.837Z,56.71
2023-03-13T14:37:17.371Z,57.99
2023-03-13T14:38:53.313Z,60.20
2023-03-13T14:40:13.747Z,62.26
2023-03-13T14:42:05.041Z,64.63
2023-03-13T14:43:36.410Z,64.31
2023-03-13T14:44:58.697Z,61.93
2023-03-13T14:46:20.453Z,59.90
2023-03-13T14:48:04.754Z,57.71
2023-03-13T14:49:36.563Z,57.22
2023-03-13T14:51:15.637Z,58.64
2023-03-13T14:52:48.333Z,60.57
2023-03-13T14:54:11.580Z,62.62
2023-03-13T14:55:43.590Z,64.63
2023-03-13T14:57:15.562Z,63.74
2023-03-13T14:58:55.132Z,61.19
2023-03-13T15:00:27.858Z,58.85
2023-03-13T15:01:53.014Z,57.24
2023-03-13T15:03:20.929Z,57.59
2023-03-13T15:05:00.425Z,59.19
2023-03-13T15:06:28.751Z,61.23
2023-03-13T15:08:10.147Z,63.02
2023-03-13T15:09:32.993Z,64.59
2023-03-13T15:11:17.192Z,63.02
2023-03-13T15:12:49.108Z,60.06
2023-03-13T15:14:21.296Z,57.58
2023-03-13T15:15:55.570Z,56.73
2023-03-13T15:17:34.768Z,58.06
2023-03-13T15:18:57.244Z,59.54
2023-03-13T15:20:24.899Z,61.05
2023-03-13T15:22:04.522Z,62.61
2023-03-13T15:23:31.909Z,64.49
2023-03-13T15:25:16.003Z,63.18
2023-03-13T15:26:49.280Z,60.30
2023-03-13T15:28:32.930Z,57.63
2023-03-13T15:30:07.890Z,56.90
2023-03-13T15:31:39.620Z,58.20
2023-03-13T15:33:02.757Z,59.52
2023-03-13T15:34:46.543Z,61.29
2023-03-13T15:36:30.613Z,63.15
2023-03-13T15:38:14.219Z,64.52
2023-03-13T15:40:00.156Z,62.22
2023-03-13T15:41:34.847Z,58.96
2023-03-13T15:43:19.039Z,56.74
2023-03-13T15:44:39.528Z,56.98
2023-03-13T15:46:21.076Z,58.25
2023-03-13T15:48:05.270Z,60.34
2023-03-13T15:49:25.917Z,62.00
2023-03-13T15:50:46.753Z,63.76
2023-03-13T15:52:19.349Z,64.31
2023-03-13T15:53:39.619Z,62.13
2023-03-13T15:55:15.029Z,59.68
2023-03-13T15:56:38.014Z,57.19
2023-03-13T15:58:12.984Z,56.56
2023-03-13T15:59:34.403Z,57.80
2023-03-13T16:00:57.917Z,59.24
2023-03-13T16:02:32.240Z,60.84
2023-03-13T16:04:07.009Z,62.27
2023-03-13T16:05:28.553Z,64.24
2023-03-13T16:07:00.959Z,63.95
2023-03-13T16:08:36.908Z,61.43
2023-03-13T16:10:22.602Z,58.31
2023-03-13T16:12:08.333Z,56.64
2023-03-13T16:13:51.611Z,57.75
2023-03-13T16:15:35.095Z,59.51
2023-03-13T16:17:18.719Z,61.20
2023-03-13T16:19:10.874Z,62.98
2023-03-13T16:20:54.519Z,64.24
2023-03-13T16:22:38.260Z,61.72
2023-03-13T16:24:22.522Z,58.57
2023-03-13T16:25:54.554Z,56.58
2023-03-13T16:27:26.226Z,56.96
2023-03-13T16:29:16.317Z,58.62
2023-03-13T16:30:55.838Z,60.30
2023-03-13T16:32:33.464Z,61.61
2023-03-13T16:34:08.441Z,63.13
2023-03-13T16:35:39.720Z,64.13
2023-03-13T16:37:11.566Z,61.89
2023-03-13T16:38:50.081Z,59.49
2023-03-13T16:40:33.999Z,56.22
2023-03-13T16:42:17.957Z,56.33
2023-03-13T16:44:10.214Z,57.95
2023-03-13T16:45:49.704Z,59.75
2023-03-13T16:47:33.350Z,61.28
2023-03-13T16:49:05.787Z,62.70
2023-03-13T16:50:58.407Z,64.06
2023-03-13T16:52:33.507Z,62.33
2023-03-13T16:53:54.845Z,59.19
2023-03-13T16:55:27.330Z,56.71
2023-03-13T16:57:11.547Z,56.30
2023-03-13T16:58:33.573Z,57.39
2023-03-13T17:00:21.602Z,58.82
2023-03-13T17:01:54.018Z,60.27
2023-03-13T17:03:14.275Z,61.53
2023-03-13T17:04:46.562Z,62.74
2023-03-13T17:06:19.023Z,63.96
2023-03-13T17:07:51.275Z,62.17
2023-03-13T17:09:35.034Z,59.17
2023-03-13T17:11:12.792Z,55.99
2023-03-13T17:12:53.574Z,55.90
2023-03-13T17:14:25.757Z,57.21
2023-03-13T17:16:05.697Z,58.40
2023-03-13T17:17:28.072Z,59.81
2023-03-13T17:18:59.872Z,60.78
2023-03-13T17:20:34.302Z,61.77
2023-03-13T17:22:18.014Z,62.78
2023-03-13T17:23:50.381Z,63.65
2023-03-13T17:25:42.493Z,61.36
2023-03-13T17:27:14.936Z,57.62
2023-03-13T17:28:37.618Z,55.71
2023-03-13T17:30:21.688Z,55.96
2023-03-13T17:32:06.494Z,57.23
2023-03-13T17:33:41.168Z,58.74
2023-03-13T17:35:25.374Z,59.89
2023-03-13T17:37:12.797Z,61.01
2023-03-13T17:38:56.981Z,62.03
2023-03-13T17:40:40.893Z,63.34
2023-03-13T17:42:13.307Z,63.13
2023-03-13T17:43:56.944Z,59.88
2023-03-13T17:45:37.818Z,56.37
2023-03-13T17:47:12.574Z,55.63
2023-03-13T17:48:40.055Z,56.49
2023-03-13T17:50:13.097Z,57.65
2023-03-13T17:51:45.625Z,58.77
2023-03-13T17:53:17.836Z,59.85
2023-03-13T17:54:45.697Z,60.62
2023-03-13T17:56:08.589Z,61.47
2023-03-13T17:57:39.160Z,62.22
2023-03-13T17:59:11.817Z,63.07
2023-03-13T18:00:46.791Z,63.37
2023-03-13T18:02:08.206Z,60.78
2023-03-13T18:03:28.764Z,57.81
2023-03-13T18:05:11.036Z,55.49
2023-03-13T18:06:43.736Z,55.39
2023-03-13T18:08:09.785Z,56.51
2023-03-13T18:09:59.668Z,57.59
2023-03-13T18:11:32.209Z,58.88
2023-03-13T18:13:04.746Z,59.82
2023-03-13T18:14:37.036Z,60.53
2023-03-13T18:16:12.236Z,61.41
2023-03-13T18:17:32.593Z,61.91
2023-03-13T18:19:16.976Z,62.36
2023-03-13T18:21:00.872Z,63.52
2023-03-13T18:22:40.679Z,62.11
2023-03-13T18:24:13.162Z,58.48
2023-03-13T18:25:36.069Z,55.14
2023-03-13T18:27:18.044Z,54.57
2023-03-13T18:28:59.572Z,55.85
2023-03-13T18:30:44.061Z,57.02
2023-03-13T18:32:07.555Z,58.13
2023-03-13T18:33:35.112Z,59.07
2023-03-13T18:35:14.653Z,59.93
2023-03-13T18:36:47.000Z,60.75
2023-03-13T18:38:18.389Z,61.54
2023-03-13T18:39:50.633Z,62.00
2023-03-13T18:41:39.576Z,62.72
2023-03-13T18:43:23.717Z,63.11
2023-03-13T18:44:56.075Z,60.15
2023-03-13T18:46:30.210Z,56.33
2023-03-13T18:48:16.045Z,54.84
2023-03-13T18:50:01.056Z,55.44
2023-03-13T18:51:33.562Z,56.56
2023-03-13T18:52:57.181Z,57.74
2023-03-13T18:54:25.143Z,58.76
2023-03-13T18:55:47.697Z,59.54
2023-03-13T18:57:19.956Z,60.28
2023-03-13T18:58:40.576Z,60.92
2023-03-13T19:00:12.586Z,61.45
2023-03-13T19:01:39.910Z,62.08
2023-03-13T19:03:19.537Z,62.80
2023-03-13T19:04:42.272Z,63.49
2023-03-13T19:06:18.147Z,61.18
2023-03-13T19:07:50.085Z,57.20
2023-03-13T19:11:14.704Z,55.65
2023-03-13T19:12:58.592Z,56.80
2023-03-13T19:14:33.141Z,58.00
2023-03-13T19:16:07.843Z,59.16
2023-03-13T19:17:28.720Z,59.94
2023-03-13T19:19:08.592Z,60.75
2023-03-13T19:20:52.555Z,61.54
2023-03-13T19:22:25.090Z,62.36
2023-03-13T19:23:57.607Z,63.24
2023-03-13T19:25:36.837Z,63.09
2023-03-13T19:27:05.094Z,60.11
2023-03-13T19:28:25.191Z,56.88
2023-03-13T19:29:47.454Z,55.33
2023-03-13T19:31:18.782Z,55.49
2023-03-13T19:33:13.059Z,56.60
2023-03-13T19:34:33.476Z,57.95
2023-03-13T19:36:16.949Z,59.00
2023-03-13T19:37:37.308Z,60.02
2023-03-13T19:39:18.401Z,60.74
2023-03-13T19:40:50.713Z,61.58
2023-03-13T19:42:34.791Z,62.34
2023-03-13T19:44:06.945Z,63.56
2023-03-13T19:45:27.098Z,62.81
2023-03-13T19:49:18.650Z,55.60
2023-03-13T19:50:52.987Z,55.54
2023-03-13T19:52:36.536Z,56.42
2023-03-13T19:54:17.669Z,57.68
2023-03-13T19:55:37.849Z,58.79
2023-03-13T19:57:09.997Z,59.81
2023-03-13T19:58:50.365Z,60.55
2023-03-13T20:00:15.636Z,61.48
2023-03-13T20:01:47.397Z,62.05
2023-03-13T20:03:31.099Z,63.05
2023-03-13T20:05:10.774Z,63.29
2023-03-13T20:06:45.174Z,60.20
2023-03-13T20:08:17.228Z,56.54
2023-03-13T20:09:49.192Z,55.12
2023-03-13T20:11:17.177Z,55.53
2023-03-13T20:13:00.572Z,56.66
2023-03-13T20:14:32.047Z,58.02
2023-03-13T20:16:12.634Z,59.07
2023-03-13T20:17:44.583Z,60.12
2023-03-13T20:19:28.390Z,60.98
2023-03-13T20:21:20.767Z,61.76
2023-03-13T20:22:43.113Z,62.47
2023-03-13T20:24:27.936Z,63.52
2023-03-13T20:26:11.988Z,61.92
2023-03-13T20:27:39.402Z,58.44
2023-03-13T20:29:11.521Z,55.25
2023-03-13T20:30:43.865Z,55.09
2023-03-13T20:32:18.334Z,55.79
2023-03-13T20:33:39.468Z,56.88
2023-03-13T20:35:20.764Z,57.89
2023-03-13T20:36:43.093Z,59.06
2023-03-13T20:38:16.101Z,59.69